Time;durP1;ratioP1;P1;durP2;ratioP2;P2;SDS_P1;SDS_P2;PMS_P1;PMS_P2;Temp;Humidity;BMP_temperature;BMP_pressure;BME280_temperature;BME280_humidity;BME280_pressure;Samples;Min_cycle;Max_cycle;Signal;HPM_P1;HPM_P2
2022/02/05 00:00:35;;;;;;;17.98;5.95;;;3.00;99.90;;;;;;5057195;28;20410;-64
2022/02/05 00:05:43;;;;;;;12.52;5.47;;;3.10;99.90;;;;;;5056109;28;20099;-64
2022/02/05 00:43:11;;;;;;;16.20;5.80;;;3.50;99.90;;;;;;5060066;28;20087;-64
2022/02/05 00:45:43;;;;;;;13.82;6.03;;;3.50;99.90;;;;;;5059644;28;20029;-64
2022/02/05 00:48:13;;;;;;;11.93;5.30;;;3.50;99.90;;;;;;5059235;28;20025;-64
2022/02/05 00:50:46;;;;;;;12.65;5.47;;;3.60;99.90;;;;;;5058980;28;20021;-64
2022/02/05 00:53:34;;;;;;;14.50;4.63;;;3.60;99.90;;;;;;5058639;28;20025;-64
2022/02/05 00:56:19;;;;;;;10.38;4.60;;;3.60;99.90;;;;;;5058995;28;20044;-64
2022/02/05 00:58:46;;;;;;;8.38;4.32;;;3.60;99.90;;;;;;5059117;28;20013;-64
2022/02/05 01:01:14;;;;;;;10.15;4.65;;;3.70;99.90;;;;;;5058683;28;20021;-64
2022/02/05 01:03:41;;;;;;;12.45;3.92;;;3.70;99.90;;;;;;5040984;28;20064;-64
2022/02/05 01:06:09;;;;;;;15.80;4.03;;;3.70;99.90;;;;;;5059183;28;20017;-64
2022/02/05 01:08:37;;;;;;;9.18;4.43;;;3.80;99.90;;;;;;5059456;28;20083;-64
2022/02/05 01:11:06;;;;;;;8.75;4.25;;;3.80;99.90;;;;;;5060047;28;20029;-64
2022/02/05 01:13:34;;;;;;;11.18;4.85;;;3.90;99.90;;;;;;5059129;28;20091;-64
2022/02/05 01:16:11;;;;;;;13.00;4.68;;;3.90;99.90;;;;;;5059960;28;20025;-64
2022/02/05 01:18:42;;;;;;;12.05;5.28;;;3.90;99.90;;;;;;5059949;28;20402;-64
2022/02/05 01:21:35;;;;;;;16.83;6.07;;;3.90;99.90;;;;;;5060063;28;20035;-64
2022/02/05 01:24:06;;;;;;;13.25;4.43;;;3.80;99.90;;;;;;5059275;28;20017;-64
2022/02/05 01:26:41;;;;;;;12.15;3.97;;;3.80;99.90;;;;;;5059198;28;20375;-64
2022/02/05 01:29:36;;;;;;;8.70;3.13;;;3.80;99.90;;;;;;5058089;28;20412;-64
2022/02/05 01:32:09;;;;;;;17.35;6.05;;;3.80;99.90;;;;;;5058282;28;20039;-64
2022/02/05 01:51:24;;;;;;;13.68;4.07;;;3.80;99.90;;;;;;5059214;28;20028;-64
2022/02/05 01:56:54;;;;;;;7.25;3.67;;;3.80;99.90;;;;;;5058775;28;20021;-64
2022/02/05 01:59:44;;;;;;;13.25;4.60;;;3.80;99.90;;;;;;5040861;28;20032;-64
2022/02/05 02:05:02;;;;;;;11.00;4.03;;;3.90;99.90;;;;;;5058840;28;20047;-64
2022/02/05 02:10:54;;;;;;;12.77;5.07;;;3.90;99.90;;;;;;5057819;28;20028;-64
2022/02/05 02:18:30;;;;;;;8.98;3.58;;;4.00;99.90;;;;;;5057331;28;20036;-64
2022/02/05 02:26:35;;;;;;;11.63;4.28;;;4.00;99.90;;;;;;5057167;28;20029;-63
2022/02/05 02:29:11;;;;;;;7.20;3.97;;;3.90;99.90;;;;;;5057666;28;20381;-64
2022/02/05 02:31:43;;;;;;;8.18;3.42;;;3.90;99.90;;;;;;5057530;28;20021;-64
2022/02/05 02:34:17;;;;;;;14.63;5.72;;;3.90;99.90;;;;;;5057666;28;20037;-64
2022/02/05 02:36:51;;;;;;;12.95;4.45;;;3.90;99.90;;;;;;5058036;28;20029;-64
2022/02/05 02:39:26;;;;;;;10.07;3.67;;;3.90;99.90;;;;;;5058665;28;20013;-64
2022/02/05 02:42:03;;;;;;;12.27;4.07;;;3.90;99.90;;;;;;5058167;28;20025;-64
2022/02/05 02:44:32;;;;;;;8.07;3.58;;;3.90;99.90;;;;;;5057986;28;20384;-64
2022/02/05 02:46:59;;;;;;;13.45;4.03;;;3.90;99.90;;;;;;5057937;28;20055;-64
2022/02/05 02:49:45;;;;;;;6.38;3.90;;;3.90;99.90;;;;;;5040017;28;20025;-64
2022/02/05 02:57:52;;;;;;;9.00;3.85;;;3.90;99.90;;;;;;5056760;28;20024;-64
2022/02/05 03:00:20;;;;;;;7.30;3.35;;;3.90;99.90;;;;;;5056980;28;20021;-64
2022/02/05 03:02:48;;;;;;;8.77;3.47;;;3.90;99.90;;;;;;5056633;28;20024;-64
2022/02/05 03:05:15;;;;;;;7.18;2.75;;;4.00;99.90;;;;;;5038854;28;20027;-64
2022/02/05 03:07:43;;;;;;;11.20;3.28;;;4.00;99.90;;;;;;5056719;28;20425;-64
2022/02/05 03:10:11;;;;;;;8.85;2.95;;;4.00;99.90;;;;;;5038779;28;20374;-64
2022/02/05 03:12:38;;;;;;;6.43;2.70;;;4.00;99.90;;;;;;5056871;28;20025;-64
2022/02/05 03:15:07;;;;;;;9.05;2.72;;;4.00;99.90;;;;;;5040360;28;20074;-64
2022/02/05 03:17:41;;;;;;;12.10;2.60;;;4.00;99.90;;;;;;5057516;28;20479;-64
2022/02/05 03:20:09;;;;;;;11.90;3.00;;;4.00;99.90;;;;;;5057775;28;20017;-64
2022/02/05 03:22:37;;;;;;;13.02;4.32;;;4.00;99.90;;;;;;5057626;28;20017;-64
2022/02/05 03:25:04;;;;;;;11.07;4.43;;;3.90;99.90;;;;;;5057752;28;20021;-64
2022/02/05 03:27:32;;;;;;;7.10;2.72;;;3.90;99.90;;;;;;5057481;28;20053;-64
2022/02/05 03:30:00;;;;;;;8.93;2.90;;;3.90;99.90;;;;;;5057186;28;20416;-64
2022/02/05 03:32:27;;;;;;;5.70;2.22;;;3.90;99.90;;;;;;5057192;28;20025;-64
2022/02/05 03:34:54;;;;;;;7.03;2.65;;;3.90;99.90;;;;;;5038652;28;20021;-64
2022/02/05 03:37:22;;;;;;;7.55;2.80;;;3.90;99.90;;;;;;5038694;28;20040;-64
2022/02/05 03:39:49;;;;;;;7.30;2.95;;;3.90;99.90;;;;;;5056238;28;20049;-64
2022/02/05 03:42:16;;;;;;;7.68;2.83;;;3.90;99.90;;;;;;5038463;28;20028;-64
2022/02/05 03:44:43;;;;;;;16.70;5.03;;;3.90;99.90;;;;;;5056710;28;20028;-64
2022/02/05 03:47:10;;;;;;;8.65;3.85;;;4.00;99.90;;;;;;5038498;28;20103;-64
2022/02/05 03:49:38;;;;;;;8.00;3.38;;;3.90;99.90;;;;;;5056175;28;20099;-64
2022/02/05 03:52:05;;;;;;;4.90;2.83;;;3.90;99.90;;;;;;5056660;28;20071;-64
2022/02/05 03:54:34;;;;;;;4.45;2.75;;;3.90;99.90;;;;;;5038360;28;20055;-64
2022/02/05 03:57:02;;;;;;;7.05;3.63;;;3.90;99.90;;;;;;5057182;28;20119;-64
2022/02/05 03:59:29;;;;;;;5.10;2.72;;;3.80;99.90;;;;;;5039257;28;20103;-64
2022/02/05 04:01:56;;;;;;;8.32;2.78;;;3.90;99.90;;;;;;5039748;28;20040;-64
2022/02/05 04:04:27;;;;;;;5.53;3.03;;;3.80;99.90;;;;;;5057408;28;20021;-64
2022/02/05 04:06:55;;;;;;;10.02;3.58;;;3.80;99.90;;;;;;5039319;28;20024;-64
2022/02/05 04:09:32;;;;;;;15.00;3.75;;;3.80;99.90;;;;;;5056855;28;20104;-64
2022/02/05 04:17:30;;;;;;;;;;;3.80;99.90;;;;;;5060819;28;20317;-64
2022/02/05 04:19:58;;;;;;;12.57;3.15;;;3.80;99.90;;;;;;5060215;28;19912;-64
2022/02/05 04:22:26;;;;;;;5.30;2.88;;;3.80;99.90;;;;;;5041909;28;20069;-64
2022/02/05 04:24:53;;;;;;;7.68;2.88;;;3.80;99.90;;;;;;5041861;28;20024;-64
2022/02/05 04:27:20;;;;;;;10.60;4.40;;;3.80;99.90;;;;;;5042345;28;20049;-64
2022/02/05 04:29:48;;;;;;;10.00;2.72;;;3.80;99.90;;;;;;5059433;28;20362;-64
2022/02/05 04:32:16;;;;;;;6.65;3.20;;;3.80;99.90;;;;;;5059951;28;20025;-64
2022/02/05 04:34:43;;;;;;;10.13;3.10;;;3.80;99.90;;;;;;5059281;28;20021;-64
2022/02/05 04:37:11;;;;;;;4.38;2.72;;;3.80;99.90;;;;;;5059473;28;20028;-64
2022/02/05 04:39:44;;;;;;;11.32;5.72;;;3.80;99.90;;;;;;5060001;28;20021;-64
2022/02/05 04:42:20;;;;;;;7.40;3.10;;;3.80;99.90;;;;;;5060136;28;20021;-64
2022/02/05 04:45:25;;;;;;;10.18;3.50;;;3.80;99.90;;;;;;5060853;28;20344;-64
2022/02/05 04:56:11;;;;;;;6.10;3.60;;;3.80;99.90;;;;;;5059895;28;20025;-64
2022/02/05 05:01:37;;;;;;;10.60;4.32;;;3.70;99.90;;;;;;5058901;28;20050;-64
2022/02/05 05:07:51;;;;;;;7.25;2.78;;;3.60;99.90;;;;;;5059069;28;20053;-64
2022/02/05 05:20:25;;;;;;;8.05;3.25;;;3.60;99.90;;;;;;5058965;28;20108;-64
2022/02/05 05:22:52;;;;;;;9.88;4.40;;;3.60;99.90;;;;;;5058959;28;20025;-63
2022/02/05 05:25:20;;;;;;;6.32;4.15;;;3.60;99.90;;;;;;5059843;28;20021;-64
2022/02/05 05:27:47;;;;;;;12.52;5.93;;;3.60;99.90;;;;;;5059342;28;20024;-64
2022/02/05 05:30:14;;;;;;;10.50;3.88;;;3.60;99.90;;;;;;5025007;28;20079;-64
2022/02/05 05:32:42;;;;;;;11.82;3.97;;;3.60;99.90;;;;;;5041413;28;20029;-63
2022/02/05 05:35:10;;;;;;;10.98;4.88;;;3.50;99.90;;;;;;5059634;28;20021;-64
2022/02/05 05:37:37;;;;;;;12.02;4.90;;;3.60;99.90;;;;;;5059288;28;20021;-64
2022/02/05 05:40:08;;;;;;;20.02;5.65;;;3.50;99.90;;;;;;5041264;28;20048;-64
2022/02/05 05:42:40;;;;;;;11.90;4.57;;;3.50;99.90;;;;;;5058165;28;20043;-64
2022/02/05 05:47:57;;;;;;;10.95;4.78;;;3.50;99.90;;;;;;5058338;28;20066;-64
2022/02/05 05:53:10;;;;;;;18.58;6.30;;;3.50;99.90;;;;;;5057795;28;20028;-64
2022/02/05 05:55:43;;;;;;;9.95;4.25;;;3.50;99.90;;;;;;5058582;28;20017;-64
2022/02/05 05:58:11;;;;;;;14.52;4.65;;;3.50;99.90;;;;;;5057811;28;20059;-64
2022/02/05 06:00:43;;;;;;;13.20;3.97;;;3.40;99.90;;;;;;5057707;28;20030;-64
2022/02/05 06:03:11;;;;;;;12.13;4.60;;;3.40;99.90;;;;;;5057721;28;20017;-64
2022/02/05 06:05:38;;;;;;;28.00;3.90;;;3.40;99.90;;;;;;5058662;28;20036;-64
2022/02/05 06:08:06;;;;;;;16.90;4.75;;;3.40;99.90;;;;;;5058978;28;20421;-64
2022/02/05 06:10:33;;;;;;;20.65;5.75;;;3.30;99.90;;;;;;5040742;28;20036;-64
2022/02/05 06:13:00;;;;;;;13.60;5.60;;;3.30;99.90;;;;;;5058722;28;20144;-64
2022/02/05 06:15:27;;;;;;;10.85;5.28;;;3.30;99.90;;;;;;5058389;28;20325;-64
2022/02/05 06:17:54;;;;;;;9.98;4.03;;;3.30;99.90;;;;;;5040677;28;20025;-64
2022/02/05 06:20:22;;;;;;;11.52;4.22;;;3.40;99.90;;;;;;5058515;28;20401;-64
2022/02/05 06:22:49;;;;;;;9.38;5.00;;;3.40;99.90;;;;;;5058209;28;20032;-64
2022/02/05 06:25:16;;;;;;;18.88;5.60;;;3.30;99.90;;;;;;5057316;28;20059;-64
2022/02/05 06:27:44;;;;;;;13.35;5.28;;;3.40;99.90;;;;;;5057778;28;20043;-64
2022/02/05 06:30:11;;;;;;;9.82;4.10;;;3.30;99.90;;;;;;5057063;28;20337;-64
2022/02/05 06:32:39;;;;;;;15.45;4.85;;;3.30;99.90;;;;;;5057165;28;20021;-64
2022/02/05 06:35:07;;;;;;;11.85;5.05;;;3.30;99.90;;;;;;5056297;28;20071;-64
2022/02/05 06:37:34;;;;;;;10.02;4.32;;;3.40;99.90;;;;;;5057047;28;20021;-64
2022/02/05 06:40:02;;;;;;;10.50;4.13;;;3.40;99.90;;;;;;5057256;28;20104;-64
2022/02/05 06:42:30;;;;;;;13.18;4.05;;;3.30;99.90;;;;;;5039404;28;20021;-64
2022/02/05 06:44:57;;;;;;;10.38;4.07;;;3.40;99.90;;;;;;5057473;28;20028;-64
2022/02/05 06:47:25;;;;;;;19.40;5.15;;;3.40;99.90;;;;;;5057454;28;20024;-64
2022/02/05 06:49:52;;;;;;;14.77;4.28;;;3.40;99.90;;;;;;5058287;28;20020;-64
2022/02/05 06:52:20;;;;;;;11.45;4.72;;;3.40;99.90;;;;;;5058877;28;20294;-64
2022/02/05 06:54:48;;;;;;;9.95;4.13;;;3.40;99.90;;;;;;5039923;28;20025;-64
2022/02/05 06:57:16;;;;;;;21.30;7.38;;;3.40;99.90;;;;;;5040053;28;20033;-64
2022/02/05 06:59:43;;;;;;;19.17;5.97;;;3.40;99.90;;;;;;5039918;28;20416;-64
2022/02/05 07:02:10;;;;;;;23.52;12.40;;;3.50;99.90;;;;;;5058213;28;20013;-64
2022/02/05 07:04:38;;;;;;;16.13;5.55;;;3.50;99.90;;;;;;5039760;28;20031;-64
2022/02/05 07:07:05;;;;;;;18.73;4.82;;;3.50;99.90;;;;;;5039265;28;20436;-64
2022/02/05 07:09:32;;;;;;;16.50;5.05;;;3.50;99.90;;;;;;5038840;28;20036;-64
2022/02/05 07:12:01;;;;;;;12.30;4.75;;;3.50;99.90;;;;;;5038911;28;20057;-64
2022/02/05 07:14:35;;;;;;;14.43;4.95;;;3.50;99.90;;;;;;5056269;28;20048;-64
2022/02/05 07:17:21;;;;;;;8.97;3.87;;;3.50;99.90;;;;;;5038969;28;20391;-64
2022/02/05 07:22:46;;;;;;;11.13;4.03;;;3.50;99.90;;;;;;5056507;28;20263;-67
2022/02/05 07:29:13;;;;;;;20.40;4.35;;;3.50;99.90;;;;;;5038613;28;20787;-67
2022/02/05 07:31:16;;;;;;;13.57;4.25;;;3.50;99.90;;;;;;5057135;28;20046;-69
2022/02/05 07:33:43;;;;;;;13.40;4.28;;;3.50;99.90;;;;;;5057194;28;20021;-69
2022/02/05 07:36:17;;;;;;;19.52;5.63;;;3.50;99.90;;;;;;5039419;28;20052;-72
2022/02/05 07:38:46;;;;;;;5.85;3.38;;;3.50;99.90;;;;;;5057544;28;20057;-71
2022/02/05 07:41:13;;;;;;;14.43;5.18;;;3.50;99.90;;;;;;5039458;28;20017;-71
2022/02/05 07:43:41;;;;;;;11.50;4.93;;;3.50;99.90;;;;;;5039361;28;20108;-71
2022/02/05 07:46:13;;;;;;;10.23;5.50;;;3.50;99.90;;;;;;5059215;28;20028;-72
2022/02/05 07:48:41;;;;;;;8.93;4.28;;;3.60;99.90;;;;;;5060694;28;20025;-72
2022/02/05 07:51:09;;;;;;;10.63;3.83;;;3.50;99.90;;;;;;5042422;28;20395;-72
2022/02/05 07:53:37;;;;;;;13.93;4.13;;;3.50;99.90;;;;;;5060284;28;20441;-72
2022/02/05 07:56:06;;;;;;;13.98;4.93;;;3.60;99.90;;;;;;5060239;28;20025;-72
2022/02/05 07:58:34;;;;;;;12.95;4.50;;;3.60;99.90;;;;;;5060009;28;20025;-71
2022/02/05 08:01:03;;;;;;;8.48;3.78;;;3.60;99.90;;;;;;5060421;28;20021;-72
2022/02/05 08:03:30;;;;;;;13.93;4.30;;;3.60;99.90;;;;;;5059888;28;20053;-73
2022/02/05 08:06:00;;;;;;;9.95;3.55;;;3.60;99.90;;;;;;5042260;28;20083;-68
2022/02/05 08:08:31;;;;;;;13.85;4.00;;;3.60;99.90;;;;;;5042085;28;20425;-68
2022/02/05 08:11:07;;;;;;;9.57;3.20;;;3.60;99.90;;;;;;5060206;28;20025;-68
2022/02/05 08:13:36;;;;;;;10.35;4.05;;;3.60;99.90;;;;;;5060278;28;20045;-68
2022/02/05 08:18:58;;;;;;;10.65;3.60;;;3.70;99.90;;;;;;5036804;28;20115;-71
2022/02/05 08:21:25;;;;;;;14.38;4.05;;;3.70;99.90;;;;;;5061031;28;20409;-71
2022/02/05 08:23:53;;;;;;;13.18;3.10;;;3.70;99.90;;;;;;5060488;28;20037;-70
2022/02/05 08:26:27;;;;;;;18.20;4.38;;;3.70;99.90;;;;;;5042912;28;20025;-69
2022/02/05 08:28:56;;;;;;;9.15;3.90;;;3.70;99.90;;;;;;5060831;28;20047;-67
2022/02/05 08:31:23;;;;;;;14.63;5.65;;;3.70;99.90;;;;;;5059764;28;20029;-66
2022/02/05 08:33:52;;;;;;;11.02;3.63;;;3.70;99.90;;;;;;5041610;28;20436;-66
2022/02/05 08:36:23;;;;;;;9.25;3.92;;;3.70;99.90;;;;;;5060027;28;20151;-67
2022/02/05 08:38:51;;;;;;;16.13;4.82;;;3.70;99.90;;;;;;5059161;28;20029;-65
2022/02/05 08:41:19;;;;;;;11.50;4.32;;;3.80;99.90;;;;;;5059213;28;20013;-68
2022/02/05 08:43:46;;;;;;;13.52;4.05;;;3.80;99.90;;;;;;5059168;28;20413;-66
2022/02/05 08:46:14;;;;;;;11.95;4.15;;;3.80;99.90;;;;;;5059128;28;20032;-66
2022/02/05 08:48:41;;;;;;;14.70;3.30;;;3.80;99.90;;;;;;5059668;28;20055;-67
2022/02/05 08:51:12;;;;;;;8.63;3.72;;;3.90;99.90;;;;;;5059052;28;20031;-65
2022/02/05 08:53:40;;;;;;;8.63;3.58;;;3.90;99.90;;;;;;5059232;28;20025;-65
2022/02/05 08:56:07;;;;;;;5.90;3.17;;;4.00;99.90;;;;;;5060444;28;20021;-66
2022/02/05 08:58:35;;;;;;;9.80;3.58;;;4.00;99.90;;;;;;5058892;28;20024;-65
2022/02/05 09:01:17;;;;;;;9.63;3.92;;;4.10;99.90;;;;;;5042213;28;20033;-64
2022/02/05 09:04:01;;;;;;;18.27;4.00;;;4.20;99.90;;;;;;5060592;28;20368;-65
2022/02/05 09:06:34;;;;;;;7.78;3.42;;;4.30;99.90;;;;;;5059762;28;20052;-65
2022/02/05 09:12:00;;;;;;;9.38;3.58;;;4.40;99.90;;;;;;5060193;28;20032;-65
2022/02/05 09:14:33;;;;;;;9.63;3.30;;;4.40;99.90;;;;;;5058416;28;20128;-65
2022/02/05 09:17:02;;;;;;;10.45;3.85;;;4.50;99.90;;;;;;5058444;28;20029;-65
2022/02/05 09:19:32;;;;;;;6.10;3.22;;;4.50;99.90;;;;;;5058715;28;20032;-64
2022/02/05 09:22:01;;;;;;;17.60;4.32;;;4.50;99.90;;;;;;5059458;28;20036;-65
2022/02/05 09:24:29;;;;;;;9.95;2.60;;;4.50;99.90;;;;;;5058951;28;20025;-65
2022/02/05 09:27:00;;;;;;;17.92;4.65;;;4.50;99.90;;;;;;5058307;28;20131;-65
2022/02/05 09:29:31;;;;;;;20.15;3.00;;;4.50;99.90;;;;;;5058561;28;20021;-65
2022/02/05 09:31:58;;;;;;;14.68;3.08;;;4.60;99.90;;;;;;5058344;28;20024;-65
2022/02/05 09:34:25;;;;;;;13.20;3.40;;;4.60;99.90;;;;;;5058066;28;20020;-65
2022/02/05 09:36:53;;;;;;;9.88;3.35;;;4.60;99.90;;;;;;5058724;28;20440;-65
2022/02/05 09:39:20;;;;;;;9.52;3.90;;;4.70;99.90;;;;;;5059275;28;20459;-65
2022/02/05 09:41:48;;;;;;;10.18;3.88;;;4.70;99.90;;;;;;5041378;28;20425;-64
2022/02/05 09:44:15;;;;;;;13.10;3.78;;;4.70;99.90;;;;;;5059357;28;20043;-65
2022/02/05 09:46:43;;;;;;;7.25;2.72;;;4.80;99.90;;;;;;5058900;28;20025;-65
2022/02/05 09:49:11;;;;;;;14.10;3.97;;;4.80;99.90;;;;;;5059332;28;20325;-66
2022/02/05 09:51:46;;;;;;;9.18;3.92;;;4.90;99.90;;;;;;5059421;28;20020;-67
2022/02/05 09:54:13;;;;;;;9.13;3.38;;;4.90;99.90;;;;;;5058908;28;20021;-66
2022/02/05 09:56:41;;;;;;;8.20;3.90;;;5.00;99.90;;;;;;5040572;28;20021;-67
2022/02/05 09:59:08;;;;;;;7.57;3.10;;;5.10;99.90;;;;;;5057652;28;20021;-65
2022/02/05 10:01:37;;;;;;;4.35;2.45;;;5.10;99.90;;;;;;5057685;28;20040;-66
2022/02/05 10:04:10;;;;;;;12.07;4.00;;;5.10;99.90;;;;;;5057528;28;20028;-65
2022/02/05 10:06:48;;;;;;;9.93;3.60;;;5.20;99.90;;;;;;5057521;28;20376;-66
2022/02/05 10:09:18;;;;;;;9.57;4.30;;;5.30;99.90;;;;;;5057752;28;20421;-66
2022/02/05 10:11:57;;;;;;;4.95;2.58;;;5.40;99.90;;;;;;5057673;28;20021;-65
2022/02/05 10:14:30;;;;;;;7.53;3.05;;;5.40;99.90;;;;;;5057221;28;20119;-66
2022/02/05 10:17:04;;;;;;;15.05;4.15;;;5.30;99.90;;;;;;5057900;28;20051;-65
2022/02/05 10:19:55;;;;;;;11.48;4.22;;;5.30;99.90;;;;;;5058579;28;20029;-66
2022/02/05 10:22:35;;;;;;;11.95;3.53;;;5.30;99.90;;;;;;5058148;28;20105;-68
2022/02/05 10:25:13;;;;;;;7.43;2.97;;;5.30;99.90;;;;;;5058778;28;20051;-68
2022/02/05 10:27:42;;;;;;;18.80;3.10;;;5.40;99.90;;;;;;5040693;28;20032;-67
2022/02/05 10:30:28;;;;;;;11.93;3.33;;;5.40;99.90;;;;;;5058618;28;20052;-66
2022/02/05 10:33:11;;;;;;;8.67;3.60;;;5.50;99.90;;;;;;5058373;28;20082;-66
2022/02/05 10:35:50;;;;;;;12.95;3.50;;;5.50;99.90;;;;;;5058029;28;20104;-66
2022/02/05 10:43:00;;;;;;;6.15;2.90;;;5.60;99.90;;;;;;5056925;28;20017;-67
2022/02/05 10:43:49;;;;;;;7.35;2.67;;;5.50;99.90;;;;;;5056622;28;20017;-69
2022/02/05 10:46:17;;;;;;;5.07;2.05;;;5.50;99.90;;;;;;5057012;28;20049;-69
2022/02/05 10:48:45;;;;;;;13.73;3.10;;;5.50;99.90;;;;;;5039182;28;20027;-69
2022/02/05 10:51:13;;;;;;;9.13;2.90;;;5.40;99.90;;;;;;5039212;28;20021;-69
2022/02/05 10:53:49;;;;;;;15.15;3.80;;;5.40;99.90;;;;;;5056821;28;20078;-69
2022/02/05 10:56:37;;;;;;;7.30;2.85;;;5.40;99.90;;;;;;5039236;28;20021;-70
2022/02/05 11:07:21;;;;;;;7.97;2.05;;;5.50;99.90;;;;;;5058104;28;20075;-68
2022/02/05 11:09:51;;;;;;;5.68;1.83;;;5.50;99.90;;;;;;5039648;28;20055;-68
2022/02/05 11:20:15;;;;;;;10.27;2.45;;;5.50;99.90;;;;;;5057247;28;20025;-69
2022/02/05 11:22:48;;;;;;;4.55;1.95;;;5.60;99.90;;;;;;5056894;28;20108;-69
2022/02/05 11:25:16;;;;;;;7.53;3.25;;;5.60;99.90;;;;;;5038973;28;20051;-71
2022/02/05 11:27:52;;;;;;;12.23;3.15;;;5.70;99.90;;;;;;5056338;28;20020;-68
2022/02/05 11:30:29;;;;;;;6.88;2.28;;;5.80;99.90;;;;;;5056570;28;20023;-69
2022/02/05 11:33:05;;;;;;;5.57;1.52;;;5.70;99.90;;;;;;5056766;28;20021;-65
2022/02/05 11:35:58;;;;;;;8.38;1.65;;;5.80;99.90;;;;;;5056269;28;20017;-65
2022/02/05 11:38:36;;;;;;;14.10;2.63;;;5.70;99.90;;;;;;5056470;28;20017;-68
2022/02/05 11:41:06;;;;;;;11.57;3.70;;;5.70;99.90;;;;;;5056978;28;20091;-68
2022/02/05 11:43:36;;;;;;;7.32;2.45;;;5.60;99.90;;;;;;5056782;28;20025;-65
2022/02/05 11:46:19;;;;;;;6.80;2.17;;;5.60;99.90;;;;;;5057160;28;20321;-65
2022/02/05 11:48:59;;;;;;;4.15;2.00;;;5.70;99.90;;;;;;5057092;28;20419;-71
2022/02/05 11:51:33;;;;;;;8.77;2.55;;;5.70;99.90;;;;;;5057190;28;20029;-66
2022/02/05 11:54:08;;;;;;;6.22;1.75;;;5.70;99.90;;;;;;5056990;28;20429;-66
2022/02/05 11:57:01;;;;;;;13.15;3.38;;;5.70;99.90;;;;;;5057043;28;20028;-67
2022/02/05 11:59:50;;;;;;;9.52;2.50;;;5.70;99.90;;;;;;5056920;28;20028;-68
2022/02/05 12:02:22;;;;;;;6.18;3.38;;;5.60;99.90;;;;;;5057103;28;20037;-68
2022/02/05 12:05:12;;;;;;;7.47;2.92;;;5.50;99.90;;;;;;5056412;28;20104;-68
2022/02/05 12:08:03;;;;;;;11.25;3.10;;;5.50;99.90;;;;;;5056314;28;20036;-67
2022/02/05 12:10:50;;;;;;;7.13;2.30;;;5.50;99.90;;;;;;5055834;28;20128;-65
2022/02/05 12:13:33;;;;;;;15.18;2.30;;;5.60;99.90;;;;;;5057557;28;20049;-68
2022/02/05 12:16:08;;;;;;;6.15;2.05;;;5.70;99.90;;;;;;5055851;28;20535;-66
2022/02/05 12:19:09;;;;;;;9.18;1.95;;;5.80;99.90;;;;;;5056355;28;20094;-64
2022/02/05 12:21:59;;;;;;;6.57;2.00;;;5.90;99.90;;;;;;5055787;28;20417;-72
2022/02/05 12:24:37;;;;;;;10.57;1.95;;;5.90;99.90;;;;;;5055915;28;20090;-66
2022/02/05 12:27:32;;;;;;;6.10;2.60;;;6.00;99.90;;;;;;5039132;28;20021;-66
2022/02/05 12:30:35;;;;;;;8.20;2.10;;;5.90;99.90;;;;;;5056498;28;20444;-65
2022/02/05 12:33:05;;;;;;;6.47;1.45;;;6.00;99.90;;;;;;5058703;28;20028;-65
2022/02/05 12:35:34;;;;;;;5.53;2.42;;;6.00;99.90;;;;;;5042563;28;20021;-64
2022/02/05 12:38:07;;;;;;;3.40;1.83;;;6.00;99.90;;;;;;5042322;28;20383;-72
2022/02/05 12:40:56;;;;;;;8.55;2.90;;;5.90;99.90;;;;;;5060687;28;20024;-65
2022/02/05 12:43:30;;;;;;;16.48;2.88;;;5.80;99.90;;;;;;5060908;28;20079;-65
2022/02/05 12:46:09;;;;;;;10.52;4.30;;;5.60;99.90;;;;;;5060456;28;20028;-65
2022/02/05 12:48:38;;;;;;;12.15;4.18;;;5.50;99.90;;;;;;5060381;28;20057;-65
2022/02/05 12:51:05;;;;;;;11.70;3.95;;;5.40;99.90;;;;;;5041480;28;20025;-65
2022/02/05 12:53:40;;;;;;;12.90;3.33;;;5.30;99.90;;;;;;5059575;28;20053;-65
2022/02/05 12:56:17;;;;;;;11.25;4.53;;;5.20;99.90;;;;;;5059075;28;20029;-65
2022/02/05 12:59:07;;;;;;;32.42;9.02;;;5.20;99.90;;;;;;5058875;28;20025;-65
2022/02/05 13:01:51;;;;;;;9.80;2.95;;;5.20;99.90;;;;;;5058928;28;20032;-65
2022/02/05 13:04:33;;;;;;;14.48;4.93;;;5.20;99.90;;;;;;5059536;28;20099;-65
2022/02/05 13:07:05;;;;;;;5.63;2.45;;;5.30;99.90;;;;;;5041350;28;20025;-65
2022/02/05 13:09:37;;;;;;;5.93;2.55;;;5.40;99.90;;;;;;5059905;28;20436;-65
2022/02/05 13:12:08;;;;;;;5.38;2.03;;;5.50;99.90;;;;;;5059518;28;20433;-65
2022/02/05 13:14:45;;;;;;;8.57;2.70;;;5.60;99.90;;;;;;5059809;28;20094;-65
2022/02/05 13:17:47;;;;;;;4.55;1.90;;;5.70;99.90;;;;;;5059529;28;20033;-65
2022/02/05 13:26:55;;;;;;;6.18;2.22;;;5.70;99.90;;;;;;5059920;28;20083;-65
2022/02/05 13:29:27;;;;;;;4.07;2.20;;;5.70;99.90;;;;;;5055597;28;20029;-65
2022/02/05 13:34:43;;;;;;;6.03;2.35;;;5.70;99.90;;;;;;5058598;28;20032;-65
2022/02/05 13:37:22;;;;;;;6.85;2.55;;;5.60;99.90;;;;;;5058779;28;20104;-65
2022/02/05 13:40:01;;;;;;;10.43;2.88;;;5.60;99.90;;;;;;5058247;28;20029;-65
2022/02/05 13:42:37;;;;;;;6.65;2.10;;;5.60;99.90;;;;;;5058230;28;20428;-65
2022/02/05 13:45:13;;;;;;;6.10;2.67;;;5.60;99.90;;;;;;5057550;28;20078;-65
2022/02/05 13:47:45;;;;;;;8.55;3.35;;;5.60;99.90;;;;;;5058133;28;20051;-65
2022/02/05 13:50:15;;;;;;;7.97;3.10;;;5.60;99.90;;;;;;5058630;28;20024;-65
2022/02/05 13:52:51;;;;;;;11.52;3.70;;;5.50;99.90;;;;;;5058531;28;20036;-65
2022/02/05 13:55:26;;;;;;;10.30;2.97;;;5.50;99.90;;;;;;5059012;28;20104;-65
2022/02/05 13:57:56;;;;;;;7.35;2.65;;;5.50;99.90;;;;;;5059057;28;20025;-65
2022/02/05 14:00:42;;;;;;;7.00;2.80;;;5.50;99.90;;;;;;5059258;28;20025;-65
2022/02/05 14:03:10;;;;;;;5.50;2.33;;;5.50;99.90;;;;;;5060041;28;20053;-65
2022/02/05 14:06:00;;;;;;;11.10;2.95;;;5.50;99.90;;;;;;5059367;28;20045;-65
2022/02/05 14:08:30;;;;;;;9.48;2.90;;;5.50;99.90;;;;;;5058564;28;20033;-65
2022/02/05 14:11:04;;;;;;;8.77;2.20;;;5.60;99.90;;;;;;5058595;28;20048;-65
2022/02/05 14:13:32;;;;;;;5.45;1.80;;;5.60;99.90;;;;;;5057550;28;20048;-65
2022/02/05 14:16:01;;;;;;;10.07;3.25;;;5.60;99.90;;;;;;5057567;28;20028;-65
2022/02/05 14:18:31;;;;;;;8.80;2.30;;;5.70;99.90;;;;;;5058089;28;20479;-65
2022/02/05 14:21:03;;;;;;;6.28;2.55;;;5.70;99.90;;;;;;5058007;28;20025;-65
2022/02/05 14:23:33;;;;;;;6.47;2.42;;;5.60;99.90;;;;;;5057671;28;20036;-65
2022/02/05 14:28:54;;;;;;;7.75;2.50;;;5.60;99.90;;;;;;5057330;28;20025;-65
2022/02/05 14:31:43;;;;;;;10.13;2.08;;;5.60;99.90;;;;;;5057756;28;20029;-65
2022/02/05 14:34:19;;;;;;;5.28;1.75;;;5.60;99.90;;;;;;5057988;28;20025;-65
2022/02/05 14:42:17;;;;;;;8.02;2.50;;;5.60;99.90;;;;;;5058473;28;20032;-65
2022/02/05 14:44:44;;;;;;;4.78;2.28;;;5.60;99.90;;;;;;5040243;28;20036;-65
2022/02/05 14:47:12;;;;;;;5.00;2.15;;;5.70;99.90;;;;;;5040497;28;20021;-65
2022/02/05 14:49:40;;;;;;;5.28;1.58;;;5.70;99.90;;;;;;5057877;28;20099;-65
2022/02/05 14:52:12;;;;;;;4.07;1.80;;;5.70;99.90;;;;;;5058053;28;20017;-65
2022/02/05 14:54:41;;;;;;;3.83;1.70;;;5.70;99.90;;;;;;5056804;28;20364;-65
2022/02/05 14:57:10;;;;;;;10.57;1.83;;;5.70;99.90;;;;;;5056688;28;20021;-65
2022/02/05 14:59:38;;;;;;;4.10;1.63;;;5.70;99.90;;;;;;5056752;28;20443;-65
2022/02/05 15:02:08;;;;;;;7.80;2.78;;;5.80;99.90;;;;;;5056923;28;20017;-65
2022/02/05 15:04:37;;;;;;;5.95;2.50;;;5.80;99.90;;;;;;5057622;28;20021;-65
2022/02/05 15:07:06;;;;;;;6.18;1.70;;;5.90;99.90;;;;;;5056707;28;20048;-65
2022/02/05 15:09:34;;;;;;;3.20;1.27;;;5.90;99.90;;;;;;5058435;28;20060;-65
2022/02/05 15:12:02;;;;;;;6.30;1.40;;;5.90;99.90;;;;;;5056616;28;20055;-65
2022/02/05 15:14:29;;;;;;;5.50;2.47;;;5.90;99.90;;;;;;5061839;28;20090;-65
2022/02/05 15:17:00;;;;;;;5.10;1.25;;;5.80;99.90;;;;;;5075902;28;20047;-65
2022/02/05 15:19:28;;;;;;;7.15;2.15;;;5.70;99.90;;;;;;5077928;28;20313;-66
2022/02/05 15:21:56;;;;;;;4.53;1.58;;;5.70;99.90;;;;;;5077559;28;20073;-64
2022/02/05 15:24:24;;;;;;;3.72;1.40;;;5.60;99.90;;;;;;5077819;28;20070;-65
2022/02/05 15:26:53;;;;;;;4.38;1.52;;;5.50;99.90;;;;;;5077352;28;20039;-66
2022/02/05 15:29:20;;;;;;;5.55;1.60;;;5.50;99.90;;;;;;5077331;28;20100;-65
2022/02/05 15:31:48;;;;;;;4.70;2.25;;;5.40;99.90;;;;;;5077843;28;20044;-65
2022/02/05 15:34:16;;;;;;;5.57;1.52;;;5.40;99.90;;;;;;5077088;28;20368;-65
2022/02/05 15:44:42;;;;;;;6.60;1.70;;;5.30;99.90;;;;;;5076750;28;20098;-65
2022/02/05 15:47:11;;;;;;;8.48;1.88;;;5.20;99.90;;;;;;5076661;28;20027;-65
2022/02/05 15:49:38;;;;;;;7.82;1.08;;;5.20;99.90;;;;;;5076728;28;20115;-65
2022/02/05 15:52:06;;;;;;;6.53;2.17;;;5.20;99.90;;;;;;5076725;28;20059;-66
2022/02/05 15:54:34;;;;;;;3.47;1.38;;;5.20;99.90;;;;;;5074985;28;20048;-66
2022/02/05 16:02:17;;;;;;;5.75;1.60;;;5.30;99.90;;;;;;5065856;28;20042;-66
2022/02/05 16:04:45;;;;;;;6.60;2.38;;;5.20;99.90;;;;;;5075919;28;20086;-66
2022/02/05 16:07:12;;;;;;;9.10;1.60;;;5.20;99.90;;;;;;5079135;28;20024;-65
2022/02/05 16:09:43;;;;;;;3.85;1.35;;;5.10;99.90;;;;;;5081332;28;20108;-65
2022/02/05 16:12:12;;;;;;;6.60;2.75;;;5.10;99.90;;;;;;5080974;28;20039;-65
2022/02/05 16:14:40;;;;;;;3.05;1.15;;;5.00;99.90;;;;;;5066256;28;20051;-65